Time;durP1;ratioP1;P1;durP2;ratioP2;P2;SDS_P1;SDS_P2;PMS_P1;PMS_P2;Temp;Humidity;BMP_temperature;BMP_pressure;BME280_temperature;BME280_humidity;BME280_pressure;Samples;Min_cycle;Max_cycle;Signal;HPM_P1;HPM_P2
2022/03/07 00:00:06;;;;;;;44.60;20.87;;;0.90;99.90;;;;;;4174396;28;20716;-58
2022/03/07 00:02:09;;;;;;;43.33;20.73;;;1.00;99.90;;;;;;4175670;28;20273;-74
2022/03/07 00:04:14;;;;;;;44.53;21.27;;;1.00;99.90;;;;;;4266554;22;20298;-47
2022/03/07 00:06:15;;;;;;;48.63;22.33;;;1.00;99.90;;;;;;4173902;28;20286;-58
2022/03/07 00:08:16;;;;;;;73.23;33.37;;;1.10;99.90;;;;;;4175900;28;20258;-79
2022/03/07 00:10:17;;;;;;;68.57;34.47;;;1.10;99.90;;;;;;4174537;28;20274;-55
2022/03/07 00:12:18;;;;;;;63.30;28.63;;;1.10;99.90;;;;;;4176046;28;20657;-49
2022/03/07 00:14:20;;;;;;;73.63;32.87;;;1.10;99.90;;;;;;4174384;28;20299;-54
2022/03/07 00:16:21;;;;;;;64.23;30.97;;;1.10;99.90;;;;;;4175908;28;20274;-43
2022/03/07 00:18:22;;;;;;;60.60;28.33;;;1.10;99.90;;;;;;4173331;28;20298;-56
2022/03/07 00:20:23;;;;;;;65.43;31.83;;;1.10;99.90;;;;;;4174699;28;20278;-68
2022/03/07 00:22:24;;;;;;;68.50;29.67;;;1.10;99.90;;;;;;4172240;28;20273;-70
2022/03/07 00:24:26;;;;;;;61.07;30.50;;;1.20;99.90;;;;;;4174738;28;20270;-59
2022/03/07 00:26:27;;;;;;;62.37;30.13;;;1.10;99.90;;;;;;4175102;28;20336;-55
2022/03/07 00:28:28;;;;;;;62.90;30.70;;;1.10;99.90;;;;;;4173975;28;20266;-56
2022/03/07 00:30:29;;;;;;;68.63;30.03;;;1.20;99.90;;;;;;4174597;28;20282;-54
2022/03/07 00:32:30;;;;;;;54.40;26.90;;;1.20;99.90;;;;;;4174740;28;20270;-56
2022/03/07 00:34:31;;;;;;;45.20;23.47;;;1.20;99.90;;;;;;4175463;28;20331;-58
2022/03/07 00:36:32;;;;;;;50.53;24.17;;;1.20;99.90;;;;;;4174526;28;20335;-59
2022/03/07 00:38:34;;;;;;;68.27;29.53;;;1.30;99.90;;;;;;4175604;28;20294;-53
2022/03/07 00:40:36;;;;;;;58.37;25.93;;;1.30;99.90;;;;;;4174421;28;20328;-49
2022/03/07 00:42:37;;;;;;;54.57;25.13;;;1.30;99.90;;;;;;4176977;28;20323;-67
2022/03/07 00:44:39;;;;;;;58.50;27.93;;;1.30;99.90;;;;;;4173849;28;20285;-80
2022/03/07 00:46:40;;;;;;;54.07;26.40;;;1.30;99.90;;;;;;4175413;28;20278;-72
2022/03/07 00:48:41;;;;;;;58.83;26.33;;;1.30;99.90;;;;;;4174936;28;20266;-55
2022/03/07 00:50:48;;;;;;;64.83;31.10;;;1.30;99.90;;;;;;4175239;28;20258;-55
2022/03/07 00:52:49;;;;;;;62.77;30.00;;;1.30;99.90;;;;;;4174555;28;20288;-56
2022/03/07 00:54:50;;;;;;;70.40;33.37;;;1.30;99.90;;;;;;4173145;28;20286;-65
2022/03/07 00:56:51;;;;;;;65.50;31.03;;;1.30;99.90;;;;;;4175276;28;20281;-59
2022/03/07 00:58:52;;;;;;;61.00;29.23;;;1.20;99.90;;;;;;4174361;28;20320;-64
2022/03/07 01:00:53;;;;;;;57.73;29.43;;;1.20;99.90;;;;;;4175244;28;20262;-64
2022/03/07 01:02:54;;;;;;;52.10;25.17;;;1.20;99.90;;;;;;4173226;28;20343;-54
2022/03/07 01:04:55;;;;;;;86.17;37.03;;;1.20;99.90;;;;;;4175538;28;20323;-65
2022/03/07 01:06:57;;;;;;;61.93;26.57;;;1.20;99.90;;;;;;4173529;28;20258;-45
2022/03/07 01:08:58;;;;;;;59.33;26.83;;;1.20;99.90;;;;;;4175410;28;20266;-51
2022/03/07 01:10:59;;;;;;;46.93;24.20;;;1.20;99.90;;;;;;4173906;28;20328;-55
2022/03/07 01:13:00;;;;;;;63.07;29.27;;;1.20;99.90;;;;;;4174896;28;20378;-59
2022/03/07 01:15:03;;;;;;;60.77;28.87;;;1.20;99.90;;;;;;4172950;28;20670;-59
2022/03/07 01:17:04;;;;;;;61.80;29.40;;;1.20;99.90;;;;;;4173613;28;20273;-54
2022/03/07 01:19:05;;;;;;;54.40;25.97;;;1.10;99.90;;;;;;4173746;28;20316;-76
2022/03/07 01:21:06;;;;;;;56.17;26.03;;;1.10;99.90;;;;;;4174423;28;20311;-69
2022/03/07 01:23:08;;;;;;;50.97;24.43;;;1.10;99.90;;;;;;4173448;28;20646;-67
2022/03/07 01:25:09;;;;;;;54.60;25.17;;;1.10;99.90;;;;;;4174362;28;20739;-62
2022/03/07 01:27:11;;;;;;;58.87;27.40;;;1.00;99.90;;;;;;4174704;28;20331;-45
2022/03/07 01:29:12;;;;;;;51.03;26.23;;;1.00;99.90;;;;;;4173517;28;20281;-61
2022/03/07 01:31:13;;;;;;;58.20;25.53;;;1.00;99.90;;;;;;4174685;28;20266;-80
2022/03/07 01:33:14;;;;;;;53.43;24.03;;;1.00;99.90;;;;;;4173363;28;20278;-64
2022/03/07 01:35:15;;;;;;;55.57;25.63;;;1.00;99.90;;;;;;4175141;28;20315;-64
2022/03/07 01:37:18;;;;;;;51.00;25.03;;;1.00;99.90;;;;;;4174245;28;20335;-82
2022/03/07 01:39:19;;;;;;;54.53;25.43;;;1.00;99.90;;;;;;4174703;28;20839;-51
2022/03/07 01:41:20;;;;;;;55.10;25.33;;;1.00;99.90;;;;;;4173612;28;20762;-76
2022/03/07 01:43:23;;;;;;;49.80;23.07;;;1.00;99.90;;;;;;4175056;28;20270;-58
2022/03/07 01:45:24;;;;;;;56.87;24.57;;;1.00;99.90;;;;;;4173004;28;20293;-49
2022/03/07 01:47:25;;;;;;;51.17;23.57;;;1.00;99.90;;;;;;4175247;28;20336;-54
2022/03/07 01:49:27;;;;;;;50.80;23.37;;;1.00;99.90;;;;;;4316072;22;20392;-76
2022/03/07 01:51:28;;;;;;;51.70;23.20;;;1.00;99.90;;;;;;4158117;28;20717;-55
2022/03/07 01:53:30;;;;;;;45.90;23.43;;;1.00;99.90;;;;;;4158577;28;20317;-67
2022/03/07 01:55:31;;;;;;;49.40;23.83;;;1.00;99.90;;;;;;4139660;28;20284;-76
2022/03/07 01:57:35;;;;;;;49.23;23.97;;;0.90;99.90;;;;;;4157875;28;20321;-51
2022/03/07 01:59:37;;;;;;;53.60;24.50;;;0.90;99.90;;;;;;4158128;28;20724;-80
2022/03/07 02:01:39;;;;;;;49.43;23.70;;;0.90;99.90;;;;;;4157226;28;20397;-53
2022/03/07 02:03:40;;;;;;;55.00;23.57;;;0.90;99.90;;;;;;4141055;28;20275;-71
2022/03/07 02:05:44;;;;;;;52.30;25.20;;;0.90;99.90;;;;;;4158168;28;20324;-52
2022/03/07 02:07:46;;;;;;;58.20;26.20;;;0.90;99.90;;;;;;4158668;28;20283;-72
2022/03/07 02:09:47;;;;;;;59.97;29.03;;;0.90;99.90;;;;;;4156770;28;20690;-52
2022/03/07 02:11:48;;;;;;;62.97;26.93;;;0.80;99.90;;;;;;4158385;28;20278;-54
2022/03/07 02:13:49;;;;;;;55.43;26.20;;;0.80;99.90;;;;;;4138851;28;20675;-85
2022/03/07 02:15:55;;;;;;;48.27;24.00;;;0.90;99.90;;;;;;4158553;28;20270;-51
2022/03/07 02:17:58;;;;;;;41.33;22.20;;;0.80;99.90;;;;;;4156541;28;20321;-70
2022/03/07 02:19:59;;;;;;;57.47;25.47;;;0.90;99.90;;;;;;4157707;28;20311;-60
2022/03/07 02:22:01;;;;;;;48.77;22.93;;;0.90;99.90;;;;;;4156969;28;20668;-61
2022/03/07 02:24:03;;;;;;;43.63;22.20;;;0.90;99.90;;;;;;4139368;28;20326;-42
2022/03/07 02:26:20;;;;;;;41.63;20.67;;;0.90;99.90;;;;;;4157553;28;20336;-52
2022/03/07 02:28:21;;;;;;;40.77;20.43;;;0.90;99.90;;;;;;4160684;28;20852;-63
2022/03/07 02:30:22;;;;;;;39.90;20.40;;;1.00;99.90;;;;;;4143164;28;20718;-64
2022/03/07 02:32:24;;;;;;;38.53;20.40;;;1.00;99.90;;;;;;4142610;28;20906;-51
2022/03/07 02:34:25;;;;;;;39.27;19.63;;;1.00;99.90;;;;;;4160508;28;20384;-70
2022/03/07 02:36:26;;;;;;;45.97;20.47;;;1.00;99.90;;;;;;4141754;28;20283;-60
2022/03/07 02:38:28;;;;;;;40.70;20.50;;;1.00;99.90;;;;;;4143459;28;20752;-72
2022/03/07 02:40:29;;;;;;;38.40;20.27;;;1.00;99.90;;;;;;4141226;28;20342;-59
2022/03/07 02:42:30;;;;;;;44.03;20.97;;;0.90;99.90;;;;;;4160638;28;20784;-68
2022/03/07 02:44:31;;;;;;;41.90;19.77;;;0.90;99.90;;;;;;4158700;28;20695;-60
2022/03/07 02:46:33;;;;;;;46.20;21.97;;;1.00;99.90;;;;;;4161097;28;20270;-56
2022/03/07 02:50:48;;;;;;;51.63;22.17;;;1.00;99.90;;;;;;4186465;22;20861;-45
2022/03/07 02:52:49;;;;;;;46.67;21.60;;;1.00;99.90;;;;;;4175297;28;20286;-69
2022/03/07 02:54:50;;;;;;;44.63;21.33;;;1.00;99.90;;;;;;4176823;28;20294;-49
2022/03/07 02:56:51;;;;;;;44.97;22.03;;;1.00;99.90;;;;;;4176038;28;20784;-69
2022/03/07 02:58:52;;;;;;;48.73;22.47;;;1.00;99.90;;;;;;4176789;28;20336;-48
2022/03/07 03:00:53;;;;;;;48.13;22.40;;;1.00;99.90;;;;;;4175672;28;20270;-50
2022/03/07 03:02:54;;;;;;;48.53;22.93;;;1.00;99.90;;;;;;4178034;28;20320;-64
2022/03/07 03:04:56;;;;;;;49.50;22.60;;;1.00;99.90;;;;;;4184831;28;20269;-66
2022/03/07 03:06:57;;;;;;;47.03;22.53;;;1.00;99.90;;;;;;4193617;28;20315;-71
2022/03/07 03:08:58;;;;;;;46.07;21.77;;;1.00;99.90;;;;;;4192503;28;20265;-62
2022/03/07 03:10:59;;;;;;;45.67;21.93;;;1.00;99.90;;;;;;4193397;28;20269;-57
2022/03/07 03:13:00;;;;;;;45.80;22.43;;;1.00;99.90;;;;;;4192760;28;20254;-72
2022/03/07 03:15:02;;;;;;;41.00;20.90;;;1.00;99.90;;;;;;4177255;28;20279;-48
2022/03/07 03:17:03;;;;;;;39.97;19.67;;;1.00;99.90;;;;;;4176796;28;20388;-59
2022/03/07 03:19:04;;;;;;;40.80;20.20;;;1.10;99.90;;;;;;4211334;22;20368;-49
2022/03/07 03:21:05;;;;;;;41.87;19.00;;;1.10;99.90;;;;;;4157791;28;21176;-59
2022/03/07 03:23:06;;;;;;;39.17;18.43;;;1.10;99.90;;;;;;4177136;28;20274;-52
2022/03/07 03:25:09;;;;;;;34.50;17.27;;;1.10;99.90;;;;;;4175949;28;21013;-53
2022/03/07 03:29:22;;;;;;;;;;;1.10;99.90;;;;;;4146122;26;20294;-65
2022/03/07 03:33:28;;;;;;;39.33;18.77;;;1.20;99.90;;;;;;4158352;28;20319;-54
2022/03/07 03:35:30;;;;;;;43.67;19.03;;;1.20;99.90;;;;;;4158109;28;20332;-58
2022/03/07 03:37:31;;;;;;;53.93;22.40;;;1.20;99.90;;;;;;4159797;28;20660;-65
2022/03/07 03:39:32;;;;;;;53.20;24.63;;;1.20;99.90;;;;;;4156152;28;20860;-59
2022/03/07 03:41:33;;;;;;;50.67;24.20;;;1.10;99.90;;;;;;4159793;28;20344;-63
2022/03/07 03:43:34;;;;;;;52.50;26.03;;;0.90;99.90;;;;;;4179222;22;20387;-75
2022/03/07 03:45:35;;;;;;;51.57;25.73;;;0.80;99.90;;;;;;4174767;28;20332;-55
2022/03/07 03:47:38;;;;;;;52.20;24.00;;;0.70;99.90;;;;;;4189213;28;20358;-59
2022/03/07 03:49:39;;;;;;;56.17;27.30;;;0.60;99.90;;;;;;4191642;28;20370;-61
2022/03/07 03:51:41;;;;;;;53.50;23.87;;;0.60;99.90;;;;;;4192501;28;20652;-70
2022/03/07 03:55:47;;;;;;;56.33;26.73;;;0.50;99.90;;;;;;4191217;28;20789;-54
2022/03/07 03:57:48;;;;;;;58.60;21.77;;;0.50;99.90;;;;;;4191457;28;20277;-55
2022/03/07 03:59:50;;;;;;;52.00;24.10;;;0.50;99.90;;;;;;4192092;28;20290;-56
2022/03/07 04:01:51;;;;;;;50.07;24.43;;;0.50;99.90;;;;;;4191031;28;20322;-51
2022/03/07 04:03:52;;;;;;;47.90;22.83;;;0.50;99.90;;;;;;4175090;28;20955;-66
2022/03/07 04:05:53;;;;;;;48.57;22.60;;;0.40;99.90;;;;;;4192696;28;20326;-51
2022/03/07 04:07:54;;;;;;;57.57;22.87;;;0.40;99.90;;;;;;4192637;28;20270;-54
2022/03/07 04:09:55;;;;;;;51.50;23.00;;;0.50;99.90;;;;;;4189271;28;20281;-61
2022/03/07 04:11:57;;;;;;;54.97;22.93;;;0.50;99.90;;;;;;4197143;28;20285;-86
2022/03/07 04:13:58;;;;;;;57.00;22.13;;;0.50;99.90;;;;;;4172612;28;20266;-65
2022/03/07 04:15:59;;;;;;;51.13;22.70;;;0.50;99.90;;;;;;4190594;28;20831;-82
2022/03/07 04:18:00;;;;;;;58.67;25.17;;;0.50;99.90;;;;;;4191306;28;20270;-60
2022/03/07 04:20:01;;;;;;;64.00;21.70;;;0.50;99.90;;;;;;4192460;28;20289;-61
2022/03/07 04:22:03;;;;;;;44.30;20.60;;;0.50;99.90;;;;;;4192617;28;20314;-55
2022/03/07 04:24:05;;;;;;;47.50;20.67;;;0.60;99.90;;;;;;4189308;28;20315;-57
2022/03/07 04:26:06;;;;;;;40.07;19.77;;;0.70;99.90;;;;;;4196698;28;20303;-56
2022/03/07 04:28:07;;;;;;;47.03;21.97;;;0.70;99.90;;;;;;4192264;28;20699;-53
2022/03/07 04:30:09;;;;;;;44.87;19.97;;;0.70;99.90;;;;;;4193506;28;20254;-54
2022/03/07 04:32:13;;;;;;;58.50;25.53;;;0.80;99.90;;;;;;4193148;28;20715;-60
2022/03/07 04:34:15;;;;;;;44.33;22.53;;;0.80;99.90;;;;;;4191912;28;20277;-81
2022/03/07 04:36:18;;;;;;;44.83;20.10;;;0.80;99.90;;;;;;4175841;28;20336;-54
2022/03/07 04:38:24;;;;;;;42.13;19.57;;;0.90;99.90;;;;;;4175672;28;20278;-72
2022/03/07 04:40:25;;;;;;;66.13;26.50;;;0.90;99.90;;;;;;4172432;28;20352;-62
2022/03/07 04:42:26;;;;;;;70.57;28.17;;;0.90;99.90;;;;;;4180825;28;20281;-58
2022/03/07 04:44:27;;;;;;;63.50;27.47;;;1.00;99.90;;;;;;4568174;22;20367;-64
2022/03/07 04:46:29;;;;;;;71.47;31.17;;;1.00;99.90;;;;;;4190443;28;20273;-60
2022/03/07 04:48:30;;;;;;;85.30;33.80;;;1.00;99.90;;;;;;4190750;28;20257;-45
2022/03/07 04:50:31;;;;;;;60.73;24.63;;;1.00;99.90;;;;;;4190437;28;20815;-53
2022/03/07 04:52:34;;;;;;;46.40;19.27;;;1.10;99.90;;;;;;4190206;28;20335;-62
2022/03/07 04:54:35;;;;;;;42.63;17.77;;;1.10;99.90;;;;;;4191074;28;20612;-61
2022/03/07 04:56:37;;;;;;;40.17;17.87;;;1.10;99.90;;;;;;4190435;28;20732;-63
2022/03/07 04:58:38;;;;;;;35.63;15.57;;;1.00;99.90;;;;;;4191442;28;20277;-55
2022/03/07 05:00:40;;;;;;;44.57;16.70;;;1.10;99.90;;;;;;4190532;28;20351;-62
2022/03/07 05:02:41;;;;;;;37.60;17.60;;;1.00;99.90;;;;;;4191454;28;20270;-51
2022/03/07 05:04:42;;;;;;;46.10;18.63;;;1.00;99.90;;;;;;4190874;28;20750;-62
2022/03/07 05:06:43;;;;;;;42.57;16.90;;;1.00;99.90;;;;;;4188629;28;20672;-67
2022/03/07 05:08:44;;;;;;;41.93;19.07;;;1.00;99.90;;;;;;4178129;28;20308;-51
2022/03/07 05:10:46;;;;;;;36.00;17.83;;;1.00;99.90;;;;;;4191842;28;20273;-74
2022/03/07 05:12:47;;;;;;;36.80;17.13;;;1.10;99.90;;;;;;4191443;28;20676;-67
2022/03/07 05:14:48;;;;;;;40.27;17.50;;;1.10;99.90;;;;;;4190937;28;20994;-53
2022/03/07 05:16:49;;;;;;;42.77;17.43;;;1.10;99.90;;;;;;4190943;28;20265;-59
2022/03/07 05:18:50;;;;;;;32.20;15.83;;;1.20;99.90;;;;;;4190812;28;20669;-66
2022/03/07 05:20:52;;;;;;;36.47;15.83;;;1.20;99.90;;;;;;4191432;28;20281;-44
2022/03/07 05:22:53;;;;;;;40.40;16.23;;;1.30;99.90;;;;;;4190631;28;20273;-64
2022/03/07 05:24:56;;;;;;;39.60;17.03;;;1.30;99.90;;;;;;4190721;28;20285;-59
2022/03/07 05:26:57;;;;;;;38.50;17.23;;;1.30;99.90;;;;;;4190075;28;20253;-52
2022/03/07 05:28:58;;;;;;;58.03;20.80;;;1.30;99.90;;;;;;4579726;22;20432;-68
2022/03/07 05:30:59;;;;;;;56.00;23.77;;;1.30;99.90;;;;;;4154410;28;20313;-66
2022/03/07 05:33:00;;;;;;;58.80;23.77;;;1.30;99.90;;;;;;4170676;28;20596;-72
2022/03/07 05:35:03;;;;;;;54.67;23.97;;;1.20;99.90;;;;;;4154603;28;20842;-82
2022/03/07 05:37:04;;;;;;;59.97;22.87;;;1.20;99.90;;;;;;4169534;28;20323;-64
2022/03/07 05:39:06;;;;;;;47.43;21.70;;;1.10;99.90;;;;;;4172944;28;20266;-75
2022/03/07 05:41:07;;;;;;;54.10;22.17;;;1.10;99.90;;;;;;4170729;28;20305;-68
2022/03/07 05:43:09;;;;;;;55.23;20.10;;;1.10;99.90;;;;;;4173402;28;20289;-59
2022/03/07 05:45:11;;;;;;;47.63;19.87;;;1.10;99.90;;;;;;4171763;28;20282;-65
2022/03/07 05:47:13;;;;;;;42.07;18.00;;;1.10;99.90;;;;;;4172421;28;20823;-79
2022/03/07 05:49:14;;;;;;;36.97;14.30;;;1.20;99.90;;;;;;4172363;28;20309;-82
2022/03/07 05:51:22;;;;;;;31.97;14.60;;;1.20;99.90;;;;;;4176200;28;20270;-58
2022/03/07 05:53:23;;;;;;;30.97;14.50;;;1.20;99.90;;;;;;4173826;28;20274;-65
2022/03/07 05:55:24;;;;;;;32.77;13.07;;;1.20;99.90;;;;;;4173727;28;20274;-68
2022/03/07 05:57:25;;;;;;;27.47;13.33;;;1.10;99.90;;;;;;4173100;28;20312;-54
2022/03/07 05:59:26;;;;;;;32.93;14.37;;;1.10;99.90;;;;;;4175481;28;20266;-67
2022/03/07 06:01:28;;;;;;;27.00;13.93;;;1.00;99.90;;;;;;4173931;28;20329;-63
2022/03/07 06:03:29;;;;;;;28.70;13.77;;;0.90;99.90;;;;;;4157891;28;20275;-49
2022/03/07 06:05:31;;;;;;;29.33;13.90;;;0.90;99.90;;;;;;4161903;28;20266;-65
2022/03/07 06:07:32;;;;;;;30.70;13.90;;;0.90;99.90;;;;;;4174734;28;20302;-65
2022/03/07 06:09:34;;;;;;;34.80;15.03;;;0.80;99.90;;;;;;4174276;28;20787;-66
2022/03/07 06:11:35;;;;;;;31.40;14.63;;;0.90;99.90;;;;;;4153314;28;20274;-63
2022/03/07 06:13:36;;;;;;;29.17;14.27;;;0.80;99.90;;;;;;4174761;28;20273;-64
2022/03/07 06:15:43;;;;;;;30.17;13.47;;;0.70;99.90;;;;;;4174514;28;20328;-63
2022/03/07 06:17:57;;;;;;;32.07;14.57;;;0.70;99.90;;;;;;4222297;22;20352;-54
2022/03/07 06:19:59;;;;;;;31.67;14.30;;;0.70;99.90;;;;;;4142467;28;20310;-48
2022/03/07 06:22:00;;;;;;;33.97;15.77;;;0.60;99.90;;;;;;4141979;28;20333;-52
2022/03/07 06:24:01;;;;;;;32.60;16.30;;;0.60;99.90;;;;;;4139956;28;20762;-67
2022/03/07 06:26:05;;;;;;;36.60;17.40;;;0.60;99.90;;;;;;4140285;28;20271;-57
2022/03/07 06:28:06;;;;;;;37.47;16.80;;;0.60;99.90;;;;;;4143880;28;20690;-58
2022/03/07 06:30:08;;;;;;;35.03;16.17;;;0.60;99.90;;;;;;4132058;28;20311;-62
2022/03/07 06:32:09;;;;;;;34.80;17.07;;;0.60;99.90;;;;;;4145913;28;20813;-66
2022/03/07 06:34:11;;;;;;;33.57;16.13;;;0.60;99.90;;;;;;4148558;28;20275;-58
2022/03/07 06:36:12;;;;;;;37.93;15.73;;;0.60;99.90;;;;;;4153224;28;20621;-65
2022/03/07 06:38:13;;;;;;;31.97;15.37;;;0.50;99.90;;;;;;4146384;28;20337;-52
2022/03/07 06:40:15;;;;;;;34.67;15.57;;;0.60;99.90;;;;;;4150255;28;21807;-64
2022/03/07 06:42:16;;;;;;;32.87;15.50;;;0.60;99.90;;;;;;4141607;28;20267;-58
2022/03/07 06:44:17;;;;;;;31.20;14.63;;;0.70;99.90;;;;;;4140334;28;20319;-57
2022/03/07 06:46:20;;;;;;;30.13;15.47;;;0.70;99.90;;;;;;4140430;28;20291;-68
2022/03/07 06:48:21;;;;;;;32.07;16.10;;;0.70;99.90;;;;;;4140683;28;20695;-61
2022/03/07 06:50:23;;;;;;;37.47;18.10;;;0.70;99.90;;;;;;4141884;28;20716;-60
2022/03/07 06:52:25;;;;;;;44.50;18.87;;;0.70;99.90;;;;;;4140285;28;20267;-56
2022/03/07 06:54:26;;;;;;;40.10;17.90;;;0.70;99.90;;;;;;4141420;28;20271;-51
2022/03/07 06:56:27;;;;;;;33.23;15.97;;;0.70;99.90;;;;;;4139705;28;20272;-61
2022/03/07 06:58:28;;;;;;;36.53;16.53;;;0.80;99.90;;;;;;4141353;28;20623;-71
2022/03/07 07:00:30;;;;;;;31.43;16.10;;;0.90;99.90;;;;;;4139297;28;20303;-67
2022/03/07 07:02:31;;;;;;;31.43;15.83;;;0.90;99.90;;;;;;4141458;28;20329;-73
2022/03/07 07:04:32;;;;;;;33.83;16.43;;;0.80;99.90;;;;;;4140631;28;20271;-62
2022/03/07 07:06:33;;;;;;;34.60;16.63;;;0.90;99.90;;;;;;4142352;28;21498;-54
2022/03/07 07:08:34;;;;;;;35.53;18.67;;;1.00;99.90;;;;;;4140629;28;20866;-62
2022/03/07 07:10:36;;;;;;;28.20;15.47;;;1.10;99.90;;;;;;4140006;28;20268;-62
2022/03/07 07:12:37;;;;;;;32.70;16.37;;;1.20;99.90;;;;;;4140395;28;20284;-52
2022/03/07 07:14:38;;;;;;;35.30;16.83;;;1.20;99.90;;;;;;4143890;28;20298;-57
2022/03/07 07:16:41;;;;;;;36.80;16.73;;;1.20;99.90;;;;;;4145605;28;20263;-51
2022/03/07 07:18:42;;;;;;;30.37;16.67;;;1.20;99.90;;;;;;4128165;28;20319;-62
2022/03/07 07:20:43;;;;;;;35.37;16.40;;;1.20;99.90;;;;;;4143652;28;20303;-57
2022/03/07 07:22:44;;;;;;;39.73;19.90;;;1.10;99.90;;;;;;4142889;28;20306;-61
2022/03/07 07:24:45;;;;;;;37.83;18.87;;;1.20;99.90;;;;;;4143939;28;21239;-59
2022/03/07 07:26:46;;;;;;;38.43;18.73;;;1.20;99.90;;;;;;4142868;28;20267;-52
2022/03/07 07:28:47;;;;;;;35.03;17.33;;;1.30;99.90;;;;;;4143779;28;20279;-60
2022/03/07 07:30:49;;;;;;;32.00;15.10;;;1.40;99.90;;;;;;4142210;28;20260;-62
2022/03/07 07:32:51;;;;;;;37.10;16.60;;;1.50;99.90;;;;;;4142985;28;20806;-65
2022/03/07 07:34:52;;;;;;;43.20;20.67;;;1.60;99.90;;;;;;4140993;28;21265;-45
2022/03/07 07:36:53;;;;;;;37.43;20.23;;;1.70;99.90;;;;;;4143579;28;20724;-49
2022/03/07 07:38:55;;;;;;;36.80;18.37;;;1.70;99.90;;;;;;4143157;28;20313;-58
2022/03/07 07:40:56;;;;;;;34.50;18.07;;;1.80;99.90;;;;;;4142868;28;20672;-52
2022/03/07 07:42:58;;;;;;;35.00;18.00;;;1.90;99.90;;;;;;4142538;28;20264;-53
2022/03/07 07:44:59;;;;;;;42.87;20.83;;;2.00;99.90;;;;;;4142445;28;20264;-50
2022/03/07 07:47:01;;;;;;;54.57;27.03;;;2.00;99.90;;;;;;4380338;23;20294;-50
2022/03/07 07:49:03;;;;;;;50.90;23.40;;;2.10;99.90;;;;;;4191080;28;20273;-66
2022/03/07 07:51:04;;;;;;;52.03;23.17;;;2.20;99.90;;;;;;4192820;28;20810;-71
2022/03/07 07:53:06;;;;;;;54.67;25.10;;;2.30;99.90;;;;;;4191144;28;20322;-56
2022/03/07 07:55:08;;;;;;;55.23;25.27;;;2.40;99.90;;;;;;4192696;28;20257;-84
2022/03/07 07:57:11;;;;;;;56.30;26.80;;;2.50;99.90;;;;;;4192235;28;21454;-52
2022/03/07 07:59:13;;;;;;;58.57;26.60;;;2.50;99.90;;;;;;4191889;28;20277;-62
2022/03/07 08:01:14;;;;;;;72.37;31.50;;;2.60;99.90;;;;;;4173145;28;20290;-53
2022/03/07 08:03:15;;;;;;;66.90;32.57;;;2.70;99.90;;;;;;4190956;28;20621;-54
2022/03/07 08:05:18;;;;;;;63.20;30.87;;;2.80;99.90;;;;;;4174577;28;20270;-58
2022/03/07 08:07:19;;;;;;;58.23;26.27;;;2.90;99.90;;;;;;4191324;28;20362;-79
2022/03/07 08:09:20;;;;;;;49.73;23.53;;;3.10;99.90;;;;;;4174102;28;20300;-66
2022/03/07 08:11:22;;;;;;;54.57;25.70;;;3.40;99.90;;;;;;4189943;28;20273;-53
2022/03/07 08:13:23;;;;;;;48.83;23.97;;;3.50;99.90;;;;;;4496542;22;20351;-51
2022/03/07 08:15:24;;;;;;;47.07;22.73;;;3.40;99.90;;;;;;4192498;28;20280;-65
2022/03/07 08:17:25;;;;;;;62.43;30.17;;;3.30;99.90;;;;;;4191762;28;21147;-51
2022/03/07 08:22:07;;;;;;;52.77;24.70;;;3.50;99.90;;;;;;4182153;23;20543;-66
2022/03/07 08:24:08;;;;;;;96.13;40.60;;;3.50;99.90;;;;;;4190606;28;20278;-53
2022/03/07 08:26:09;;;;;;;92.47;39.40;;;3.40;99.90;;;;;;4191374;28;20273;-59
2022/03/07 08:28:10;;;;;;;41.53;21.20;;;3.50;99.90;;;;;;4191797;28;20715;-57
2022/03/07 08:30:13;;;;;;;35.73;18.90;;;3.60;99.90;;;;;;4190710;28;20311;-47
2022/03/07 08:32:15;;;;;;;32.57;17.57;;;3.80;99.90;;;;;;4191001;28;20303;-66
2022/03/07 08:34:16;;;;;;;31.37;17.50;;;3.90;99.90;;;;;;4190381;28;21073;-55
2022/03/07 08:36:17;;;;;;;34.57;16.83;;;4.10;99.90;;;;;;4191797;28;20265;-63
2022/03/07 08:38:18;;;;;;;29.77;16.07;;;4.20;99.90;;;;;;4190426;28;20299;-60
2022/03/07 08:40:21;;;;;;;25.73;14.73;;;4.10;99.90;;;;;;4191654;28;20265;-57
2022/03/07 08:42:23;;;;;;;26.80;13.67;;;4.00;99.90;;;;;;4190133;28;20326;-75
2022/03/07 08:44:25;;;;;;;29.87;16.03;;;4.00;99.90;;;;;;4191180;28;20323;-55
2022/03/07 08:46:26;;;;;;;28.77;16.23;;;4.00;99.90;;;;;;4189900;28;20270;-55
2022/03/07 08:48:29;;;;;;;28.13;15.60;;;4.00;99.90;;;;;;4191588;28;20306;-59
2022/03/07 08:50:31;;;;;;;25.33;13.07;;;4.00;99.90;;;;;;4190048;28;21118;-55
2022/03/07 08:52:32;;;;;;;32.17;18.07;;;4.00;99.90;;;;;;4190326;28;20323;-78
2022/03/07 08:54:33;;;;;;;26.53;14.87;;;4.00;99.90;;;;;;4189860;28;20273;-61
2022/03/07 08:56:35;;;;;;;30.03;15.90;;;3.90;99.90;;;;;;4190635;28;20257;-61
2022/03/07 08:58:36;;;;;;;31.30;15.80;;;3.80;99.90;;;;;;4172488;28;20274;-49
2022/03/07 09:00:37;;;;;;;28.23;15.60;;;3.70;99.90;;;;;;4189915;28;20756;-53
2022/03/07 09:02:39;;;;;;;30.53;14.80;;;3.70;99.90;;;;;;4190411;28;20323;-58
2022/03/07 09:04:40;;;;;;;131.37;55.77;;;3.80;99.90;;;;;;4189562;28;20351;-60
2022/03/07 09:06:43;;;;;;;47.77;22.53;;;3.80;99.90;;;;;;4190227;28;20754;-59
2022/03/07 09:08:44;;;;;;;37.57;17.90;;;3.90;99.90;;;;;;4189340;28;20680;-59
2022/03/07 09:10:45;;;;;;;28.13;14.83;;;3.90;99.90;;;;;;4190625;28;20270;-59
2022/03/07 09:12:48;;;;;;;24.17;12.10;;;4.00;99.90;;;;;;4189016;28;20327;-59
2022/03/07 09:14:49;;;;;;;29.07;14.33;;;3.90;99.90;;;;;;4190547;28;20626;-66
2022/03/07 09:16:50;;;;;;;25.87;13.60;;;3.70;99.90;;;;;;4190053;28;20794;-56
2022/03/07 09:18:51;;;;;;;27.63;13.83;;;3.70;99.90;;;;;;4190838;28;20281;-63
2022/03/07 09:20:54;;;;;;;30.97;15.10;;;3.70;99.90;;;;;;4188577;28;20289;-56
2022/03/07 09:22:55;;;;;;;35.43;15.67;;;3.80;99.90;;;;;;4191189;28;20297;-45
2022/03/07 09:24:56;;;;;;;30.50;15.13;;;3.80;99.90;;;;;;4189104;28;20771;-58
2022/03/07 09:26:58;;;;;;;24.80;13.20;;;3.80;99.90;;;;;;4190542;28;20315;-60
2022/03/07 09:28:59;;;;;;;31.60;12.50;;;3.80;99.90;;;;;;4189710;28;20327;-50
2022/03/07 09:31:00;;;;;;;28.70;13.33;;;3.80;99.90;;;;;;4189808;28;20297;-47
2022/03/07 09:33:03;;;;;;;28.40;15.53;;;3.90;99.90;;;;;;4189785;28;20582;-48
2022/03/07 09:35:05;;;;;;;28.40;13.50;;;4.10;99.90;;;;;;4171458;28;20270;-55
2022/03/07 09:37:06;;;;;;;25.10;12.73;;;4.20;99.90;;;;;;4189486;28;20438;-45
2022/03/07 09:39:07;;;;;;;28.27;13.03;;;4.40;99.90;;;;;;4189107;28;20261;-54
2022/03/07 09:41:08;;;;;;;31.10;12.60;;;4.60;99.90;;;;;;4190516;28;20800;-49
2022/03/07 09:43:09;;;;;;;22.57;12.47;;;4.80;99.90;;;;;;4189863;28;20354;-56
2022/03/07 09:45:13;;;;;;;24.57;13.60;;;4.90;99.90;;;;;;4190850;28;20272;-60
2022/03/07 09:47:15;;;;;;;23.93;11.80;;;4.90;99.90;;;;;;4190070;28;20332;-52
2022/03/07 09:49:19;;;;;;;22.03;9.83;;;5.00;99.90;;;;;;4190385;28;20660;-59
2022/03/07 09:51:20;;;;;;;14.97;8.10;;;5.10;99.90;;;;;;4189547;28;20336;-54
2022/03/07 09:53:22;;;;;;;19.43;8.90;;;5.20;99.90;;;;;;4190784;28;20273;-45
2022/03/07 09:55:24;;;;;;;16.57;8.67;;;5.00;99.50;;;;;;4189798;28;20322;-62
2022/03/07 09:57:25;;;;;;;23.33;8.87;;;5.10;99.90;;;;;;4188839;28;20270;-59
2022/03/07 09:59:27;;;;;;;15.13;8.77;;;5.10;99.90;;;;;;4188880;28;20266;-56
2022/03/07 10:01:28;;;;;;;15.93;7.97;;;5.10;99.60;;;;;;4189250;28;20293;-50
2022/03/07 10:03:30;;;;;;;17.70;8.50;;;5.10;99.30;;;;;;4189180;28;20711;-50
2022/03/07 10:05:39;;;;;;;21.90;9.67;;;5.20;98.80;;;;;;4189303;28;20775;-60
2022/03/07 10:07:45;;;;;;;18.40;9.67;;;5.20;99.00;;;;;;4171648;28;20697;-56
2022/03/07 10:09:47;;;;;;;22.90;9.13;;;5.30;99.00;;;;;;4188901;28;20277;-57
2022/03/07 10:11:56;;;;;;;16.70;8.33;;;5.30;98.40;;;;;;4190208;28;20273;-53
2022/03/07 10:14:04;;;;;;;18.27;9.77;;;5.30;98.20;;;;;;4188668;28;20273;-48
2022/03/07 10:16:06;;;;;;;23.40;10.80;;;5.50;98.50;;;;;;4189568;28;20339;-53
2022/03/07 10:18:15;;;;;;;17.63;9.13;;;5.60;98.00;;;;;;4188510;28;20994;-56
2022/03/07 10:20:19;;;;;;;14.63;7.90;;;5.80;97.60;;;;;;4206591;22;20643;-55
2022/03/07 10:22:24;;;;;;;22.07;9.43;;;5.90;96.60;;;;;;4187357;28;20879;-61
2022/03/07 10:26:47;;;;;;;19.98;9.07;;;5.70;96.10;;;;;;4266231;23;21007;-64
2022/03/07 10:28:56;;;;;;;25.30;9.83;;;5.30;94.80;;;;;;4186567;28;20044;-56
2022/03/07 10:30:57;;;;;;;17.90;9.23;;;5.20;95.40;;;;;;4206092;28;20277;-47
2022/03/07 10:33:05;;;;;;;19.10;7.57;;;5.10;95.50;;;;;;4203891;28;20675;-59
2022/03/07 10:35:08;;;;;;;15.80;8.50;;;5.00;93.70;;;;;;4206957;28;20314;-53
2022/03/07 10:37:09;;;;;;;19.57;8.47;;;4.80;93.60;;;;;;4204259;28;20265;-48
2022/03/07 10:39:13;;;;;;;20.57;9.07;;;4.70;94.60;;;;;;4205318;28;20318;-59